Terminal Aerodrome Forecast
Issued by NWS

Home | Current Version | Previous Version | Text Only | Print | Product List | Glossary On
Versions: 1 2 3 4 5 6 7 8 9 10 11 12 13
000
FTUS42 KTBW 300538
TAFPGD
TAF
KPGD 300538Z 3006/3106 VRB03KT P6SM SCT050 BKN080
     FM301600 23006KT P6SM VCTS SCT050CB BKN100
     FM310000 27006KT P6SM SCT050 BKN110
     FM310200 15004KT P6SM SCT070 BKN100=

USA.gov is the U.S. government's official web portal to all federal, state and local government web resources and services.